createdAt,value
2022-11-25T00:00:27.348Z,100.00
2022-11-25T00:02:56.535Z,100.00
2022-11-25T00:05:26.507Z,100.00
2022-11-25T00:07:54.206Z,100.00
2022-11-25T00:10:21.943Z,100.00
2022-11-25T00:12:49.670Z,100.00
2022-11-25T00:15:17.495Z,100.00
2022-11-25T00:17:45.263Z,100.00
2022-11-25T00:20:14.446Z,100.00
2022-11-25T00:22:42.247Z,100.00
2022-11-25T00:25:10.467Z,100.00
2022-11-25T00:27:38.190Z,100.00
2022-11-25T00:30:07.264Z,100.00
2022-11-25T00:32:34.966Z,100.00
2022-11-25T00:35:02.650Z,100.00
2022-11-25T00:37:33.393Z,100.00
2022-11-25T00:40:01.091Z,100.00
2022-11-25T00:42:46.552Z,100.00
2022-11-25T00:45:14.346Z,100.00
2022-11-25T00:47:42.046Z,100.00
2022-11-25T00:50:10.440Z,100.00
2022-11-25T00:52:39.480Z,100.00
2022-11-25T00:55:07.779Z,100.00
2022-11-25T00:57:35.417Z,100.00
2022-11-25T01:00:03.330Z,100.00
2022-11-25T01:02:31.089Z,100.00
2022-11-25T01:04:58.785Z,100.00
2022-11-25T01:07:26.566Z,100.00
2022-11-25T01:09:55.770Z,100.00
2022-11-25T01:12:23.419Z,100.00
2022-11-25T01:14:51.218Z,100.00
2022-11-25T01:17:18.922Z,100.00
2022-11-25T01:19:46.681Z,100.00
2022-11-25T01:22:14.398Z,100.00
2022-11-25T01:24:42.099Z,100.00
2022-11-25T01:27:11.092Z,100.00
2022-11-25T01:29:41.414Z,100.00
2022-11-25T01:32:09.227Z,100.00
2022-11-25T01:34:37.569Z,100.00
2022-11-25T01:37:05.757Z,100.00
2022-11-25T01:39:33.574Z,100.00
2022-11-25T01:42:01.349Z,100.00
2022-11-25T01:44:31.367Z,100.00
2022-11-25T01:47:06.448Z,100.00
2022-11-25T01:49:39.649Z,100.00
2022-11-25T01:52:13.900Z,100.00
2022-11-25T01:54:45.928Z,100.00
2022-11-25T01:57:22.927Z,100.00
2022-11-25T01:59:55.339Z,100.00
2022-11-25T02:02:23.637Z,100.00
2022-11-25T02:04:51.584Z,100.00
2022-11-25T02:07:26.223Z,100.00
2022-11-25T02:09:55.167Z,100.00
2022-11-25T02:12:23.608Z,100.00
2022-11-25T02:14:55.058Z,100.00
2022-11-25T02:17:22.751Z,100.00
2022-11-25T02:19:59.769Z,100.00
2022-11-25T02:22:37.009Z,100.00
2022-11-25T02:25:16.540Z,100.00
2022-11-25T02:27:47.195Z,100.00
2022-11-25T02:30:15.268Z,100.00
2022-11-25T02:32:46.455Z,100.00
2022-11-25T02:35:29.235Z,100.00
2022-11-25T02:38:01.080Z,100.00
2022-11-25T02:40:31.046Z,100.00
2022-11-25T02:43:01.481Z,100.00
2022-11-25T02:45:38.186Z,100.00
2022-11-25T02:48:07.292Z,100.00
2022-11-25T02:50:34.999Z,100.00
2022-11-25T02:53:02.843Z,100.00
2022-11-25T02:55:31.889Z,100.00
2022-11-25T02:57:59.581Z,100.00
2022-11-25T03:00:27.604Z,100.00
2022-11-25T03:02:55.623Z,100.00
2022-11-25T03:05:23.432Z,100.00
2022-11-25T03:07:51.583Z,100.00
2022-11-25T03:10:19.508Z,100.00
2022-11-25T03:12:48.739Z,100.00
2022-11-25T03:15:16.869Z,100.00
2022-11-25T03:17:44.887Z,100.00
2022-11-25T03:20:15.191Z,100.00
2022-11-25T03:22:43.594Z,100.00
2022-11-25T03:25:13.036Z,100.00
2022-11-25T03:27:41.763Z,100.00
2022-11-25T03:30:13.982Z,100.00
2022-11-25T03:32:41.778Z,100.00
2022-11-25T03:35:10.574Z,100.00
2022-11-25T03:37:38.680Z,100.00
2022-11-25T03:40:08.657Z,100.00
2022-11-25T03:42:36.809Z,100.00
2022-11-25T03:45:05.525Z,100.00
2022-11-25T03:47:34.641Z,100.00
2022-11-25T03:50:02.366Z,100.00
2022-11-25T03:52:30.185Z,100.00
2022-11-25T03:54:57.968Z,100.00
2022-11-25T03:57:25.741Z,100.00
2022-11-25T03:59:53.406Z,100.00
2022-11-25T04:02:21.167Z,100.00
2022-11-25T04:04:50.422Z,100.00
2022-11-25T04:07:18.251Z,100.00
2022-11-25T04:09:46.007Z,100.00
2022-11-25T04:12:31.067Z,100.00
2022-11-25T04:14:58.715Z,100.00
2022-11-25T04:17:26.442Z,100.00
2022-11-25T04:19:55.479Z,100.00
2022-11-25T04:22:23.193Z,100.00
2022-11-25T04:24:50.854Z,100.00
2022-11-25T04:27:20.321Z,100.00
2022-11-25T04:29:48.254Z,100.00
2022-11-25T04:32:16.086Z,100.00
2022-11-25T04:34:43.884Z,100.00
2022-11-25T04:37:12.887Z,100.00
2022-11-25T04:39:40.669Z,100.00
2022-11-25T04:42:26.509Z,100.00
2022-11-25T04:45:20.937Z,100.00
2022-11-25T04:47:42.808Z,100.00
2022-11-25T04:50:16.710Z,100.00
2022-11-25T04:52:46.046Z,100.00
2022-11-25T04:55:13.990Z,100.00
2022-11-25T04:57:41.993Z,100.00
2022-11-25T05:00:10.060Z,100.00
2022-11-25T05:02:37.777Z,100.00
2022-11-25T05:05:06.481Z,100.00
2022-11-25T05:07:34.467Z,100.00
2022-11-25T05:10:03.597Z,100.00
2022-11-25T05:12:31.584Z,100.00
2022-11-25T05:14:59.328Z,100.00
2022-11-25T05:17:29.758Z,100.00
2022-11-25T05:19:57.786Z,100.00
2022-11-25T05:22:27.808Z,100.00
2022-11-25T05:24:55.565Z,100.00
2022-11-25T05:27:26.089Z,100.00
2022-11-25T05:29:56.212Z,100.00
2022-11-25T05:32:24.382Z,100.00
2022-11-25T05:34:52.148Z,100.00
2022-11-25T05:37:24.067Z,100.00
2022-11-25T05:39:52.650Z,100.00
2022-11-25T05:42:20.434Z,100.00
2022-11-25T05:44:49.471Z,100.00
2022-11-25T05:47:17.153Z,100.00
2022-11-25T05:49:44.878Z,100.00
2022-11-25T05:52:12.689Z,100.00
2022-11-25T05:54:40.355Z,100.00
2022-11-25T05:57:08.094Z,100.00
2022-11-25T05:59:35.826Z,100.00
2022-11-25T06:02:04.943Z,100.00
2022-11-25T06:04:32.841Z,100.00
2022-11-25T06:07:00.558Z,100.00
2022-11-25T06:09:28.248Z,100.00
2022-11-25T06:11:56.001Z,100.00
2022-11-25T06:14:23.729Z,100.00
2022-11-25T06:16:51.759Z,100.00
2022-11-25T06:19:20.862Z,100.00
2022-11-25T06:21:48.741Z,100.00
2022-11-25T06:24:16.626Z,100.00
2022-11-25T06:26:44.312Z,100.00
2022-11-25T06:29:11.995Z,100.00
2022-11-25T06:31:39.770Z,100.00
2022-11-25T06:34:09.208Z,100.00
2022-11-25T06:36:38.305Z,100.00
2022-11-25T06:39:06.090Z,100.00
2022-11-25T06:41:33.807Z,100.00
2022-11-25T06:44:01.585Z,100.00
2022-11-25T06:46:29.326Z,100.00
2022-11-25T06:48:57.023Z,100.00
2022-11-25T06:51:24.772Z,100.00
2022-11-25T06:53:54.154Z,100.00
2022-11-25T06:56:23.915Z,100.00
2022-11-25T06:58:52.858Z,100.00
2022-11-25T07:01:22.522Z,100.00
2022-11-25T07:03:52.935Z,100.00
2022-11-25T07:06:21.598Z,100.00
2022-11-25T07:08:50.098Z,100.00
2022-11-25T07:11:21.424Z,100.00
2022-11-25T07:13:52.747Z,100.00
2022-11-25T07:16:20.747Z,100.00
2022-11-25T07:18:48.631Z,100.00
2022-11-25T07:21:19.125Z,100.00
2022-11-25T07:23:47.699Z,100.00
2022-11-25T07:26:17.649Z,100.00
2022-11-25T07:28:46.970Z,100.00
2022-11-25T07:31:28.484Z,100.00
2022-11-25T07:34:00.912Z,100.00
2022-11-25T07:36:30.309Z,100.00
2022-11-25T07:38:59.482Z,100.00
2022-11-25T07:41:28.839Z,100.00
2022-11-25T07:44:00.810Z,100.00
2022-11-25T07:46:30.760Z,100.00
2022-11-25T07:49:00.521Z,100.00
2022-11-25T07:51:30.685Z,100.00
2022-11-25T07:53:59.762Z,100.00
2022-11-25T07:56:27.722Z,100.00
2022-11-25T07:58:58.066Z,100.00
2022-11-25T08:01:26.318Z,100.00
2022-11-25T08:03:54.671Z,100.00
2022-11-25T08:06:24.995Z,100.00
2022-11-25T08:08:55.391Z,100.00
2022-11-25T08:11:25.680Z,100.00
2022-11-25T08:13:54.153Z,100.00
2022-11-25T08:16:25.241Z,100.00
2022-11-25T08:18:53.162Z,100.00
2022-11-25T08:21:21.207Z,100.00
2022-11-25T08:23:49.567Z,100.00
2022-11-25T08:26:19.827Z,100.00
2022-11-25T08:28:48.440Z,100.00
2022-11-25T08:31:17.987Z,100.00
2022-11-25T08:33:47.875Z,100.00
2022-11-25T08:36:15.982Z,100.00
2022-11-25T08:38:44.323Z,100.00
2022-11-25T08:41:14.086Z,100.00
2022-11-25T08:43:41.859Z,100.00
2022-11-25T08:46:11.541Z,100.00
2022-11-25T08:48:39.655Z,100.00
2022-11-25T08:51:12.435Z,100.00
2022-11-25T08:53:41.163Z,100.00
2022-11-25T08:56:10.700Z,100.00
2022-11-25T08:58:39.040Z,100.00
2022-11-25T09:01:07.917Z,100.00
2022-11-25T09:03:39.928Z,100.00
2022-11-25T09:06:09.852Z,100.00
2022-11-25T09:08:39.607Z,100.00
2022-11-25T09:11:08.116Z,100.00
2022-11-25T09:13:36.457Z,100.00
2022-11-25T09:16:05.139Z,100.00
2022-11-25T09:18:33.251Z,100.00
2022-11-25T09:21:01.099Z,100.00
2022-11-25T09:23:30.789Z,100.00
2022-11-25T09:25:59.724Z,100.00
2022-11-25T09:28:28.326Z,100.00
2022-11-25T09:30:56.363Z,100.00
2022-11-25T09:33:24.221Z,100.00
2022-11-25T09:35:52.033Z,100.00
2022-11-25T09:38:19.911Z,100.00
2022-11-25T09:40:55.313Z,100.00
2022-11-25T09:43:54.151Z,100.00
2022-11-25T09:46:45.939Z,100.00
2022-11-25T09:49:28.663Z,100.00
2022-11-25T09:52:04.506Z,100.00
2022-11-25T09:54:37.940Z,100.00
2022-11-25T09:57:20.404Z,100.00
2022-11-25T09:59:56.054Z,100.00
2022-11-25T10:02:29.262Z,100.00
2022-11-25T10:05:04.376Z,100.00
2022-11-25T10:07:37.654Z,100.00
2022-11-25T10:10:08.464Z,100.00
2022-11-25T10:12:44.406Z,100.00
2022-11-25T10:15:20.130Z,100.00
2022-11-25T10:17:50.510Z,100.00
2022-11-25T10:20:23.591Z,100.00
2022-11-25T10:22:55.184Z,100.00
2022-11-25T10:25:25.211Z,100.00
2022-11-25T10:28:00.603Z,100.00
2022-11-25T10:30:35.295Z,100.00
2022-11-25T10:33:11.469Z,100.00
2022-11-25T10:35:42.117Z,100.00
2022-11-25T10:38:19.197Z,100.00
2022-11-25T10:40:50.261Z,100.00
2022-11-25T10:43:19.716Z,100.00
2022-11-25T10:45:53.398Z,100.00
2022-11-25T10:48:44.573Z,100.00
2022-11-25T10:51:28.107Z,100.00
2022-11-25T10:54:14.762Z,100.00
2022-11-25T10:56:50.145Z,100.00
2022-11-25T10:59:27.182Z,100.00
2022-11-25T11:02:14.429Z,100.00
2022-11-25T11:04:53.791Z,100.00
2022-11-25T11:07:21.733Z,100.00
2022-11-25T11:09:50.057Z,100.00
2022-11-25T11:12:22.529Z,100.00
2022-11-25T11:14:52.314Z,100.00
2022-11-25T11:17:36.297Z,100.00
2022-11-25T11:20:17.822Z,100.00
2022-11-25T11:22:52.902Z,100.00
2022-11-25T11:25:34.652Z,100.00
2022-11-25T11:28:03.431Z,100.00
2022-11-25T11:30:33.982Z,100.00
2022-11-25T11:33:05.711Z,100.00
2022-11-25T11:35:49.507Z,100.00
2022-11-25T11:38:29.772Z,100.00
2022-11-25T11:41:08.270Z,100.00
2022-11-25T11:43:50.194Z,100.00
2022-11-25T11:46:34.165Z,100.00
2022-11-25T11:49:16.512Z,100.00
2022-11-25T11:51:54.347Z,100.00
2022-11-25T11:54:34.838Z,100.00
2022-11-25T11:57:07.495Z,100.00
2022-11-25T11:59:50.709Z,100.00
2022-11-25T12:02:32.335Z,100.00
2022-11-25T12:05:14.134Z,100.00
2022-11-25T12:07:51.370Z,100.00
2022-11-25T12:10:27.198Z,100.00
2022-11-25T12:13:01.228Z,100.00
2022-11-25T12:15:38.775Z,100.00
2022-11-25T12:18:34.608Z,100.00
2022-11-25T12:21:05.369Z,100.00
2022-11-25T12:23:43.149Z,100.00
2022-11-25T12:26:19.019Z,100.00
2022-11-25T12:28:53.107Z,97.54
2022-11-25T12:31:24.700Z,94.92
2022-11-25T12:34:06.333Z,93.52
2022-11-25T12:36:37.221Z,92.13
2022-11-25T12:39:13.147Z,90.83
2022-11-25T12:41:44.869Z,89.22
2022-11-25T12:44:19.352Z,87.85
2022-11-25T12:46:49.795Z,86.12
2022-11-25T12:49:22.676Z,84.75
2022-11-25T12:52:00.632Z,83.06
2022-11-25T12:54:46.140Z,82.39
2022-11-25T12:57:32.311Z,80.99
2022-11-25T13:00:39.870Z,79.02
2022-11-25T13:03:56.762Z,75.97
2022-11-25T13:06:46.774Z,74.26
2022-11-25T13:09:31.645Z,74.20
2022-11-25T13:12:25.057Z,75.02
2022-11-25T13:15:14.868Z,76.62
2022-11-25T13:17:45.288Z,77.92
2022-11-25T13:20:36.874Z,79.15
2022-11-25T13:23:22.523Z,79.39
2022-11-25T13:25:52.718Z,80.69
2022-11-25T13:28:31.623Z,80.89
2022-11-25T13:31:22.705Z,81.08
2022-11-25T13:34:07.754Z,82.63
2022-11-25T13:36:48.748Z,82.39
2022-11-25T13:39:19.077Z,82.68
2022-11-25T13:41:49.895Z,82.69
2022-11-25T13:44:28.486Z,83.80
2022-11-25T13:46:59.354Z,84.45
2022-11-25T13:49:32.394Z,84.97
2022-11-25T13:52:03.720Z,85.61
2022-11-25T13:54:40.238Z,86.55
2022-11-25T13:57:27.113Z,87.73
2022-11-25T14:00:00.521Z,88.87
2022-11-25T14:02:44.920Z,88.06
2022-11-25T14:05:47.375Z,85.73
2022-11-25T14:08:34.457Z,83.87
2022-11-25T14:11:29.569Z,83.74
2022-11-25T14:14:27.099Z,82.64
2022-11-25T14:17:11.740Z,82.10
2022-11-25T14:20:05.503Z,81.91
2022-11-25T14:22:57.267Z,82.32
2022-11-25T14:25:27.841Z,82.80
2022-11-25T14:28:07.000Z,82.98
2022-11-25T14:30:36.123Z,82.42
2022-11-25T14:33:08.073Z,81.62
2022-11-25T14:35:45.309Z,82.15
2022-11-25T14:38:18.750Z,82.97
2022-11-25T14:40:54.945Z,83.56
2022-11-25T14:43:26.533Z,82.88
2022-11-25T14:46:12.816Z,82.92
2022-11-25T14:48:40.705Z,82.80
2022-11-25T14:51:10.291Z,82.56
2022-11-25T14:53:47.566Z,83.19
2022-11-25T14:56:18.161Z,83.60
2022-11-25T14:58:49.750Z,83.70
2022-11-25T15:01:20.383Z,84.17
2022-11-25T15:03:49.043Z,84.27
2022-11-25T15:06:19.901Z,85.02
2022-11-25T15:08:56.105Z,84.92
2022-11-25T15:11:26.871Z,84.94
2022-11-25T15:14:00.569Z,84.83
2022-11-25T15:16:33.777Z,85.30
2022-11-25T15:19:03.937Z,85.19
2022-11-25T15:21:48.405Z,84.42
2022-11-25T15:24:25.394Z,84.59
2022-11-25T15:26:54.440Z,84.47
2022-11-25T15:29:26.968Z,84.92
2022-11-25T15:31:55.884Z,85.16
2022-11-25T15:34:25.430Z,85.48
2022-11-25T15:36:54.705Z,86.17
2022-11-25T15:39:27.408Z,86.22
2022-11-25T15:41:57.342Z,87.20
2022-11-25T15:44:29.340Z,86.52
2022-11-25T15:47:01.116Z,86.90
2022-11-25T15:49:30.110Z,87.34
2022-11-25T15:52:01.739Z,87.48
2022-11-25T15:54:32.446Z,87.58
2022-11-25T15:57:04.313Z,87.50
2022-11-25T15:59:48.120Z,87.13
2022-11-25T16:02:34.746Z,88.03
2022-11-25T16:05:28.601Z,89.80
2022-11-25T16:08:03.123Z,89.89
2022-11-25T16:10:32.732Z,90.42
2022-11-25T16:13:31.802Z,90.61
2022-11-25T16:16:03.633Z,90.35
2022-11-25T16:18:42.334Z,91.24
2022-11-25T16:21:13.053Z,91.64
2022-11-25T16:23:45.115Z,91.67
2022-11-25T16:26:18.322Z,91.61
2022-11-25T16:28:54.030Z,90.30
2022-11-25T16:31:23.870Z,90.22
2022-11-25T16:33:54.098Z,90.15
2022-11-25T16:36:21.836Z,90.48
2022-11-25T16:38:54.099Z,90.31
2022-11-25T16:41:24.839Z,90.42
2022-11-25T16:43:52.719Z,91.09
2022-11-25T16:46:21.448Z,91.11
2022-11-25T16:48:52.287Z,91.56
2022-11-25T16:51:21.990Z,91.67
2022-11-25T16:53:49.971Z,92.72
2022-11-25T16:56:23.318Z,92.89
2022-11-25T16:58:51.349Z,93.36
2022-11-25T17:01:29.281Z,93.38
2022-11-25T17:03:58.887Z,93.73
2022-11-25T17:06:30.231Z,94.11
2022-11-25T17:08:58.034Z,93.85
2022-11-25T17:11:30.251Z,93.84
2022-11-25T17:14:00.409Z,93.89
2022-11-25T17:16:29.794Z,94.10
2022-11-25T17:19:00.953Z,94.36
2022-11-25T17:21:29.942Z,94.37
2022-11-25T17:24:02.827Z,94.30
2022-11-25T17:26:36.496Z,95.00
2022-11-25T17:29:08.386Z,95.04
2022-11-25T17:31:38.646Z,95.04
2022-11-25T17:34:07.757Z,95.29
2022-11-25T17:36:35.490Z,95.20
2022-11-25T17:39:03.197Z,95.46
2022-11-25T17:41:34.303Z,95.50
2022-11-25T17:44:06.368Z,95.66
2022-11-25T17:46:34.071Z,95.70
2022-11-25T17:49:01.822Z,95.55
2022-11-25T17:51:30.900Z,94.74
2022-11-25T17:53:58.572Z,94.72
2022-11-25T17:56:29.977Z,94.12
2022-11-25T17:59:08.584Z,92.94
2022-11-25T18:01:36.387Z,92.57
2022-11-25T18:04:16.332Z,92.48
2022-11-25T18:06:45.637Z,92.25
2022-11-25T18:09:13.415Z,92.73
2022-11-25T18:11:46.685Z,93.06
2022-11-25T18:14:17.536Z,92.74
2022-11-25T18:16:45.417Z,92.98
2022-11-25T18:19:13.938Z,93.33
2022-11-25T18:21:42.407Z,93.08
2022-11-25T18:24:11.559Z,93.54
2022-11-25T18:26:44.818Z,93.29
2022-11-25T18:29:16.456Z,93.81
2022-11-25T18:31:45.860Z,93.98
2022-11-25T18:34:15.970Z,93.99
2022-11-25T18:36:44.312Z,94.28
2022-11-25T18:39:13.814Z,94.41
2022-11-25T18:41:42.872Z,94.33
2022-11-25T18:44:25.877Z,94.31
2022-11-25T18:46:54.807Z,94.31
2022-11-25T18:49:23.875Z,93.92
2022-11-25T18:51:51.699Z,93.96
2022-11-25T18:54:20.782Z,93.65
2022-11-25T18:56:51.877Z,92.94
2022-11-25T18:59:25.242Z,92.75
2022-11-25T19:01:52.988Z,92.57
2022-11-25T19:04:20.862Z,92.76
2022-11-25T19:06:48.548Z,93.01
2022-11-25T19:09:16.325Z,92.64
2022-11-25T19:11:48.346Z,92.87
2022-11-25T19:14:24.190Z,93.21
2022-11-25T19:16:52.198Z,92.80
2022-11-25T19:19:19.967Z,93.22
2022-11-25T19:21:47.812Z,93.09
2022-11-25T19:24:17.273Z,92.30
2022-11-25T19:26:49.571Z,92.67
2022-11-25T19:29:21.773Z,92.37
2022-11-25T19:31:50.808Z,92.03
2022-11-25T19:34:26.693Z,91.55
2022-11-25T19:36:54.445Z,92.18
2022-11-25T19:39:22.172Z,91.86
2022-11-25T19:41:51.289Z,91.10
2022-11-25T19:44:19.639Z,91.48
2022-11-25T19:47:14.207Z,90.70
2022-11-25T19:49:38.085Z,90.19
2022-11-25T19:52:06.328Z,89.39
2022-11-25T19:54:34.043Z,90.06
2022-11-25T19:57:03.539Z,89.30
2022-11-25T19:59:31.304Z,89.63
2022-11-25T20:01:59.027Z,89.76
2022-11-25T20:04:26.882Z,89.58
2022-11-25T20:06:54.631Z,89.43
2022-11-25T20:09:22.365Z,89.54
2022-11-25T20:11:54.279Z,89.39
2022-11-25T20:14:23.343Z,89.28
2022-11-25T20:16:51.259Z,88.95
2022-11-25T20:19:19.519Z,89.43
2022-11-25T20:21:48.585Z,89.01
2022-11-25T20:24:19.716Z,89.34
2022-11-25T20:26:48.833Z,89.06
2022-11-25T20:29:19.088Z,89.54
2022-11-25T20:31:48.446Z,89.59
2022-11-25T20:34:16.222Z,89.27
2022-11-25T20:36:45.396Z,90.39
2022-11-25T20:39:18.361Z,91.36
2022-11-25T20:41:48.037Z,91.13
2022-11-25T20:44:15.864Z,91.23
2022-11-25T20:46:43.659Z,91.79
2022-11-25T20:49:22.134Z,91.62
2022-11-25T20:51:50.490Z,91.71
2022-11-25T20:54:18.755Z,91.89
2022-11-25T20:56:46.485Z,91.88
2022-11-25T20:59:20.405Z,91.67
2022-11-25T21:01:48.319Z,91.42
2022-11-25T21:04:18.375Z,91.41
2022-11-25T21:06:46.760Z,91.88
2022-11-25T21:09:19.556Z,91.77
2022-11-25T21:11:48.106Z,92.37
2022-11-25T21:14:17.176Z,92.24
2022-11-25T21:16:45.192Z,92.63
2022-11-25T21:19:13.303Z,92.86
2022-11-25T21:21:45.120Z,92.61
2022-11-25T21:24:22.514Z,92.66
2022-11-25T21:26:51.372Z,92.51
2022-11-25T21:29:19.861Z,93.04
2022-11-25T21:31:47.734Z,92.79
2022-11-25T21:34:16.123Z,93.21
2022-11-25T21:36:46.448Z,92.96
2022-11-25T21:39:26.156Z,93.15
2022-11-25T21:41:54.652Z,93.35
2022-11-25T21:44:29.799Z,93.33
2022-11-25T21:46:57.804Z,93.53
2022-11-25T21:49:26.376Z,94.03
2022-11-25T21:51:55.671Z,94.25
2022-11-25T21:54:23.658Z,94.01
2022-11-25T21:56:52.387Z,94.15
2022-11-25T21:59:21.535Z,94.15
2022-11-25T22:01:49.527Z,94.20
2022-11-25T22:04:19.587Z,94.18
2022-11-25T22:06:48.568Z,93.82
2022-11-25T22:09:18.366Z,93.48
2022-11-25T22:11:48.376Z,93.65
2022-11-25T22:14:27.702Z,93.68
2022-11-25T22:16:56.225Z,93.90
2022-11-25T22:19:27.135Z,93.51
2022-11-25T22:21:55.672Z,93.37
2022-11-25T22:24:25.281Z,93.80
2022-11-25T22:26:57.693Z,93.62
2022-11-25T22:29:29.212Z,93.65
2022-11-25T22:31:57.278Z,94.29
2022-11-25T22:34:26.201Z,94.07
2022-11-25T22:36:54.029Z,94.31
2022-11-25T22:39:25.466Z,94.30
2022-11-25T22:41:56.217Z,94.50
2022-11-25T22:44:26.147Z,95.33
2022-11-25T22:46:54.130Z,95.36
2022-11-25T22:49:37.708Z,95.61
2022-11-25T22:52:06.130Z,95.47
2022-11-25T22:54:35.413Z,95.92
2022-11-25T22:57:03.399Z,95.41
2022-11-25T22:59:31.205Z,94.31
2022-11-25T23:01:59.108Z,94.42
2022-11-25T23:04:26.976Z,94.36
2022-11-25T23:06:56.864Z,94.68
2022-11-25T23:09:24.989Z,95.13
2022-11-25T23:11:54.263Z,95.44
2022-11-25T23:14:22.034Z,95.25
2022-11-25T23:16:49.860Z,95.33
2022-11-25T23:19:17.766Z,95.19
2022-11-25T23:21:46.514Z,95.54
2022-11-25T23:24:16.281Z,95.83
2022-11-25T23:26:44.588Z,95.57
2022-11-25T23:29:13.687Z,95.38
2022-11-25T23:31:41.759Z,96.09
2022-11-25T23:34:12.529Z,95.92
2022-11-25T23:36:44.678Z,96.23
2022-11-25T23:39:20.098Z,96.77
2022-11-25T23:41:48.833Z,96.76
2022-11-25T23:44:24.529Z,97.27
2022-11-25T23:46:53.876Z,97.57
2022-11-25T23:49:25.263Z,98.00
2022-11-25T23:51:56.063Z,98.34
2022-11-25T23:54:30.207Z,98.25
2022-11-25T23:56:58.269Z,98.64
2022-11-25T23:59:30.969Z,98.97
